Weather reports worldwide

Advertisment
Lecaroz, Spain (8030): temperature & dewpoint: 12.01.2020 12:00:00 - 18.01.2020 12:00:00 (CET)Lecaroz, Spain (8030): wind speed & gusts: 12.01.2020 12:00:00 - 18.01.2020 12:00:00 (CET)Lecaroz, Spain (8030): wind direction: 12.01.2020 12:00:00 - 18.01.2020 12:00:00 (CET)Lecaroz, Spain (8030): precipitation: 12.01.2020 12:00:00 - 18.01.2020 12:00:00 (CET)
Date & Time tt [°C] td [°C] ff [km/h] ff [kn] fx [km/h] fx [kn] dd rr [mm]
18.01.2020 12:00:00 - - - - - - - -
18.01.2020 11:00:00 4,7 4,3 2 1 9 5 N 0,0
18.01.2020 10:00:00 3,8 3,6 1 0 13 7 SW 0,0
18.01.2020 09:00:00 3,2 2,9 1 1 8 5 W 0,0
18.01.2020 08:00:00 3,1 2,9 1 1 5 3 NW 0,0
18.01.2020 07:00:00 3,2 2,9 0 0 3 1 WNW -
18.01.2020 06:00:00 3,1 2,9 0 0 3 2 NW 0,0
18.01.2020 05:00:00 2,9 2,7 0 0 8 5 S 0,0
18.01.2020 04:00:00 2,9 2,7 0 0 3 1 SSW 0,0
18.01.2020 03:00:00 2,9 2,7 1 0 3 1 E 0,0
18.01.2020 02:00:00 2,4 2,1 0 0 3 2 SE 0,0
18.01.2020 01:00:00 2,3 1,9 1 0 4 2 NW -
18.01.2020 00:00:00 2,8 2,3 0 0 4 2 NW 0,0
17.01.2020 23:00:00 4,0 3,6 3 1 7 4 SSW 0,1
17.01.2020 22:00:00 4,7 4,3 1 0 3 2 NE 0,0
17.01.2020 21:00:00 4,3 3,6 0 0 6 3 SW 0,0
17.01.2020 20:00:00 5,9 4,8 3 2 10 5 SSW 0,4
17.01.2020 19:00:00 5,5 3,8 2 1 6 4 NNW -
17.01.2020 18:00:00 8,5 5,1 0 0 9 5 W 0,0
17.01.2020 17:00:00 9,9 3,2 4 2 15 8 W 0,0
17.01.2020 16:00:00 10,6 2,9 5 3 17 9 SW 0,0
17.01.2020 15:00:00 10,7 4,6 3 2 16 9 WSW 0,0
17.01.2020 14:00:00 9,7 5,5 4 2 21 12 NNE 0,1
17.01.2020 13:00:00 9,1 7,7 1 0 9 5 ESE -
17.01.2020 12:00:00 8,6 7,4 1 0 10 5 S 1,7
17.01.2020 11:00:00 8,3 7,0 4 2 9 5 SW 1,7
17.01.2020 10:00:00 8,4 6,7 3 1 22 12 S 1,7
17.01.2020 09:00:00 8,9 7,7 0 0 25 14 SSW 2,3
17.01.2020 08:00:00 11,3 5,0 6 3 18 10 WNW 0,0
17.01.2020 07:00:00 7,6 4,1 0 0 10 5 SSW -
17.01.2020 06:00:00 7,9 2,3 2 1 9 5 E 0,0
17.01.2020 05:00:00 11,5 2,3 5 3 18 10 NW 0,0
17.01.2020 04:00:00 13,3 2,5 7 4 24 13 SW 0,0
17.01.2020 03:00:00 13,9 3,0 10 5 18 10 SSW 0,0
17.01.2020 02:00:00 13,9 2,7 2 1 31 17 ESE 0,0
17.01.2020 01:00:00 14,2 3,0 1 0 40 22 WSW -
17.01.2020 00:00:00 14,9 3,4 19 10 47 26 S 0,0
16.01.2020 23:00:00 15,0 3,4 15 8 33 18 SSW 0,0
16.01.2020 22:00:00 15,2 3,6 10 6 35 19 S 0,0
16.01.2020 21:00:00 15,3 4,3 11 6 32 17 SSW 0,0
16.01.2020 20:00:00 15,5 4,8 12 7 31 17 S 0,0
16.01.2020 19:00:00 15,2 4,8 10 5 38 21 SSW -
16.01.2020 18:00:00 15,2 4,8 11 6 27 15 SSW 0,0
16.01.2020 17:00:00 15,5 5,1 13 7 37 20 S 0,0
16.01.2020 16:00:00 15,6 5,0 16 9 49 26 S 0,0
16.01.2020 15:00:00 15,4 5,0 18 10 43 23 S 0,0
16.01.2020 14:00:00 16,0 5,0 11 6 34 18 S 0,0
16.01.2020 13:00:00 14,7 4,6 12 7 46 25 SSE -
16.01.2020 12:00:00 14,1 4,3 20 11 48 26 SSE 0,0
16.01.2020 11:00:00 14,1 3,8 18 10 43 23 SSE 0,0
16.01.2020 10:00:00 12,8 3,4 12 6 32 17 S 0,0
16.01.2020 09:00:00 9,3 3,2 4 2 18 10 WNW 0,0
16.01.2020 08:00:00 7,0 2,9 3 2 30 16 NW 0,0
16.01.2020 07:00:00 10,9 4,1 8 4 23 12 S -
16.01.2020 06:00:00 9,2 3,6 5 3 27 15 SSW 0,0
16.01.2020 05:00:00 6,4 4,1 4 2 23 13 SSE 0,0
16.01.2020 04:00:00 1,9 1,3 1 0 17 9 E 0,0
16.01.2020 03:00:00 2,2 1,5 3 2 19 10 N 0,0
16.01.2020 02:00:00 1,0 0,6 1 0 10 6 N 0,0
16.01.2020 01:00:00 1,0 0,4 1 0 8 4 W -
16.01.2020 00:00:00 1,3 0,6 1 0 6 4 S 0,0
15.01.2020 23:00:00 2,0 1,3 0 0 7 4 W 0,0
15.01.2020 22:00:00 2,3 1,3 1 1 5 3 S 0,0
15.01.2020 21:00:00 3,5 1,9 0 0 4 2 SSE 0,0
15.01.2020 20:00:00 5,1 2,5 1 0 5 3 SW 0,0
15.01.2020 19:00:00 7,8 2,7 1 0 9 5 SSW -
15.01.2020 18:00:00 11,0 2,9 1 1 14 7 SW 0,0
15.01.2020 17:00:00 13,1 2,7 4 2 15 8 W 0,0
15.01.2020 16:00:00 14,0 3,2 6 3 20 11 WNW 0,0
15.01.2020 15:00:00 13,2 2,7 5 3 20 11 NW 0,0
15.01.2020 14:00:00 13,0 2,3 5 3 20 11 WNW 0,0
15.01.2020 13:00:00 13,4 2,7 4 2 29 15 NW -
15.01.2020 12:00:00 12,1 1,9 4 2 17 9 W 0,0
15.01.2020 11:00:00 11,7 1,7 3 2 22 12 WSW 0,0
15.01.2020 10:00:00 11,2 1,1 6 4 40 21 WSW 0,0
15.01.2020 09:00:00 11,0 0,6 19 11 39 21 SSE 0,0
15.01.2020 08:00:00 10,2 0,2 0 0 28 15 SSE 0,0
15.01.2020 07:00:00 10,2 0,4 3 1 35 19 SE -
15.01.2020 06:00:00 9,9 0,0 10 5 27 14 NW 0,0
15.01.2020 05:00:00 10,7 0,2 4 2 42 23 WSW 0,0
15.01.2020 04:00:00 10,8 0,2 18 10 42 23 S 0,0
15.01.2020 03:00:00 10,6 -0,3 24 13 50 27 SSE 0,0
15.01.2020 02:00:00 10,6 -0,3 15 8 40 22 S 0,0
15.01.2020 01:00:00 10,7 -0,5 12 7 29 15 S -
15.01.2020 00:00:00 10,2 0,0 6 4 37 20 SW 0,0
14.01.2020 23:00:00 10,5 -0,3 13 7 35 19 S 0,0
14.01.2020 22:00:00 10,1 -0,5 8 5 40 21 SW 0,0
14.01.2020 21:00:00 9,6 -1,4 12 7 34 18 S 0,0
14.01.2020 20:00:00 8,6 -1,2 1 1 29 16 WSW 0,0
14.01.2020 19:00:00 9,2 -1,0 6 4 15 8 WNW -
14.01.2020 18:00:00 10,7 -1,0 5 3 29 16 W 0,0
14.01.2020 17:00:00 11,6 -0,5 9 5 38 21 SSW 0,0
14.01.2020 16:00:00 13,7 0,4 3 2 26 14 N 0,0
14.01.2020 15:00:00 13,5 0,2 4 2 30 16 SW 0,0
14.01.2020 14:00:00 13,7 0,4 4 2 18 10 NNW 0,0
14.01.2020 13:00:00 12,7 -0,3 11 6 29 16 S -
14.01.2020 12:00:00 - - - - - - - -
14.01.2020 11:00:00 11,7 1,3 2 1 13 7 NNE 0,0
14.01.2020 10:00:00 10,9 0,0 4 2 23 12 W 0,0
14.01.2020 09:00:00 9,5 -0,7 6 3 15 8 SW 0,0
14.01.2020 08:00:00 8,4 -1,4 4 2 17 9 WNW 0,0
14.01.2020 07:00:00 8,7 -1,0 6 3 18 10 WNW -
14.01.2020 06:00:00 5,7 -0,7 1 0 18 10 W 0,0
14.01.2020 05:00:00 9,0 -2,2 6 4 21 12 W 0,0
14.01.2020 04:00:00 8,8 -1,7 8 4 25 13 W 0,0
14.01.2020 03:00:00 6,1 0,2 2 1 10 6 S 0,0
14.01.2020 02:00:00 4,3 0,2 3 1 12 6 S 0,0
14.01.2020 01:00:00 3,4 0,6 2 1 11 6 S -
14.01.2020 00:00:00 4,3 0,2 4 2 14 7 WSW 0,0
13.01.2020 23:00:00 3,0 0,9 3 1 9 5 S 0,0
13.01.2020 22:00:00 2,7 0,6 5 3 9 5 SSW 0,0
13.01.2020 21:00:00 2,5 0,2 0 0 9 5 E 0,0
13.01.2020 20:00:00 3,8 1,1 3 1 9 5 S 0,0
13.01.2020 19:00:00 4,8 1,5 1 0 7 4 ESE -
13.01.2020 18:00:00 7,4 1,3 2 1 12 6 SSW 0,0
13.01.2020 17:00:00 10,2 1,3 2 1 16 9 W 0,0
13.01.2020 16:00:00 11,8 0,9 9 5 18 10 WNW 0,0
13.01.2020 15:00:00 11,3 4,5 1 1 6 3 S 0,0
13.01.2020 14:00:00 8,9 6,8 1 0 3 2 S 0,0
13.01.2020 13:00:00 5,7 5,1 0 0 4 2 ESE -
13.01.2020 12:00:00 2,4 2,1 1 0 5 3 E 0,0
13.01.2020 11:00:00 0,4 0,2 1 0 4 2 N 0,0
13.01.2020 10:00:00 -0,3 -0,5 1 1 4 2 SW 0,0
13.01.2020 09:00:00 -0,7 -1,0 1 0 4 2 WSW 0,0
13.01.2020 08:00:00 -0,7 -1,0 1 1 4 2 WSW 0,0
13.01.2020 07:00:00 -0,5 -0,7 0 0 3 1 SSW -
13.01.2020 06:00:00 -0,4 -0,7 0 0 3 2 WSW 0,0
13.01.2020 05:00:00 -0,4 -0,7 1 0 3 2 N 0,0
13.01.2020 04:00:00 -0,4 -0,7 0 0 2 1 SE 0,0
13.01.2020 03:00:00 -0,2 -0,5 0 0 2 1 W 0,0
13.01.2020 02:00:00 -0,1 -0,5 0 0 1 1 W 0,0
13.01.2020 01:00:00 0,0 -0,5 0 0 4 2 WSW -
13.01.2020 00:00:00 -0,5 -1,0 1 0 3 2 NW 0,0
12.01.2020 23:00:00 -0,2 -0,7 0 0 2 1 W 0,0
12.01.2020 22:00:00 0,0 -0,5 0 0 3 2 WNW 0,0
12.01.2020 21:00:00 0,9 0,2 0 0 3 1 SW 0,0
12.01.2020 20:00:00 2,1 1,1 0 0 2 1 NW 0,0
12.01.2020 19:00:00 3,2 1,5 0 0 3 1 ESE -
12.01.2020 18:00:00 5,8 3,0 1 0 5 3 W 0,0
12.01.2020 17:00:00 8,3 3,6 2 1 6 3 SW 0,0
12.01.2020 16:00:00 11,1 4,3 3 1 5 3 SW 0,0
12.01.2020 15:00:00 - - - - - - - -
12.01.2020 14:00:00 5,4 2,5 1 1 5 3 N 0,0
12.01.2020 13:00:00 2,6 2,3 2 1 5 3 SE -
12.01.2020 12:00:00 0,3 0,0 2 1 5 3 SSE 0,0

tt = temperature
td = dewpoint
ff = wind speed
fx = gusts
dd = wind direction
rr = precipitation

Next stations